Time;durP1;ratioP1;P1;durP2;ratioP2;P2;SDS_P1;SDS_P2;PMS_P1;PMS_P2;Temp;Humidity;BMP_temperature;BMP_pressure;BME280_temperature;BME280_humidity;BME280_pressure;Samples;Min_cycle;Max_cycle;Signal;HPM_P1;HPM_P2
2023/12/14 00:01:10;;;;;;;48.83;21.57;;;3.30;99.90;;;;;;5032526;28;20673;-81
2023/12/14 00:03:57;;;;;;;53.80;21.47;;;3.20;99.90;;;;;;5031326;28;20239;-81
2023/12/14 00:06:45;;;;;;;57.53;22.20;;;3.20;99.90;;;;;;5032682;28;20578;-81
2023/12/14 00:09:32;;;;;;;51.93;21.70;;;3.10;99.90;;;;;;5032906;28;20224;-81
2023/12/14 00:12:19;;;;;;;54.10;22.80;;;3.10;99.90;;;;;;5031509;28;20293;-80
2023/12/14 00:15:07;;;;;;;58.37;23.00;;;3.00;99.90;;;;;;5032266;28;20197;-81
2023/12/14 00:17:55;;;;;;;59.20;23.43;;;3.00;99.90;;;;;;5032294;28;20208;-80
2023/12/14 00:20:42;;;;;;;60.60;23.10;;;3.00;99.90;;;;;;5034349;28;20206;-80
2023/12/14 00:23:30;;;;;;;64.40;24.23;;;3.00;99.90;;;;;;5031862;28;20519;-81
2023/12/14 00:26:17;;;;;;;59.53;23.77;;;2.90;99.90;;;;;;5035443;28;20215;-81
2023/12/14 00:29:04;;;;;;;58.87;24.00;;;3.00;99.90;;;;;;5033864;28;20282;-81
2023/12/14 00:31:52;;;;;;;64.40;23.70;;;2.90;99.90;;;;;;5033151;28;20205;-80
2023/12/14 00:34:41;;;;;;;66.93;24.53;;;2.90;99.90;;;;;;5031686;28;20196;-81
2023/12/14 00:37:28;;;;;;;67.53;25.10;;;2.90;99.90;;;;;;5029435;28;20194;-80
2023/12/14 00:40:16;;;;;;;67.27;24.40;;;2.90;99.90;;;;;;5030115;28;20210;-80
2023/12/14 00:43:03;;;;;;;63.30;23.37;;;2.90;99.90;;;;;;5031565;28;20320;-80
2023/12/14 00:45:52;;;;;;;61.10;23.53;;;2.80;99.90;;;;;;5031526;28;20208;-81
2023/12/14 00:48:39;;;;;;;65.10;24.10;;;2.90;99.90;;;;;;5033745;28;20190;-81
2023/12/14 00:51:27;;;;;;;71.40;24.77;;;2.90;99.90;;;;;;5032757;28;20194;-80
2023/12/14 00:54:15;;;;;;;62.17;23.77;;;2.80;99.90;;;;;;5030673;28;20538;-81
2023/12/14 00:57:02;;;;;;;64.17;24.33;;;2.80;99.90;;;;;;5031819;28;20252;-81
2023/12/14 00:59:50;;;;;;;68.37;25.30;;;2.80;99.90;;;;;;5031887;28;20215;-80
2023/12/14 01:02:37;;;;;;;67.00;24.70;;;2.80;99.90;;;;;;5029975;28;20312;-81
2023/12/14 01:05:25;;;;;;;69.27;25.70;;;2.80;99.90;;;;;;5031376;28;20211;-82
2023/12/14 01:08:14;;;;;;;63.70;23.70;;;2.70;99.90;;;;;;5030696;28;20667;-81
2023/12/14 01:11:02;;;;;;;67.70;23.43;;;2.70;99.90;;;;;;5032059;28;20320;-81
2023/12/14 01:13:49;;;;;;;60.93;23.83;;;2.70;99.90;;;;;;5031934;28;20230;-80
2023/12/14 01:16:36;;;;;;;61.60;23.40;;;2.70;99.90;;;;;;5030529;28;20199;-81
2023/12/14 01:19:25;;;;;;;60.07;23.07;;;2.80;99.90;;;;;;5031021;28;20225;-81
2023/12/14 01:22:12;;;;;;;61.60;23.23;;;2.70;99.90;;;;;;5031040;28;20282;-80
2023/12/14 01:25:01;;;;;;;60.90;23.07;;;2.70;99.90;;;;;;5031749;28;20741;-80
2023/12/14 01:27:49;;;;;;;56.23;22.07;;;2.70;99.90;;;;;;5031138;28;20211;-80
2023/12/14 01:30:37;;;;;;;58.70;22.23;;;2.80;99.90;;;;;;5031216;28;20203;-80
2023/12/14 01:33:24;;;;;;;57.63;21.87;;;2.80;99.90;;;;;;5031755;28;20209;-80
2023/12/14 01:36:19;;;;;;;54.63;21.20;;;2.70;99.90;;;;;;5031011;28;20194;-81
2023/12/14 01:39:06;;;;;;;53.13;20.20;;;2.70;99.90;;;;;;5030777;28;20324;-80
2023/12/14 01:41:54;;;;;;;56.00;20.90;;;2.70;99.90;;;;;;5034191;28;20218;-80
2023/12/14 01:44:41;;;;;;;56.50;20.63;;;2.70;99.90;;;;;;5034353;28;20205;-81
2023/12/14 01:47:29;;;;;;;48.53;19.27;;;2.70;99.90;;;;;;5035026;28;20193;-80
2023/12/14 01:50:17;;;;;;;49.03;19.03;;;2.70;99.90;;;;;;5034826;28;20330;-80
2023/12/14 01:53:05;;;;;;;49.07;19.47;;;2.70;99.90;;;;;;5034585;28;20270;-80
2023/12/14 01:55:53;;;;;;;54.33;19.60;;;2.60;99.90;;;;;;5034371;28;20261;-81
2023/12/14 01:58:40;;;;;;;49.80;18.07;;;2.50;99.90;;;;;;5034751;28;20741;-80
2023/12/14 02:01:42;;;;;;;48.10;17.63;;;2.60;99.90;;;;;;5034932;28;20203;-81
2023/12/14 02:04:30;;;;;;;49.93;19.47;;;2.60;99.90;;;;;;5034685;28;20189;-80
2023/12/14 02:07:17;;;;;;;49.50;18.80;;;2.70;99.90;;;;;;5034831;28;20198;-81
2023/12/14 02:10:06;;;;;;;47.37;18.07;;;2.70;99.90;;;;;;5033762;28;20194;-80
2023/12/14 02:12:53;;;;;;;44.97;17.60;;;2.60;99.90;;;;;;5033124;28;20301;-81
2023/12/14 02:15:41;;;;;;;50.17;18.00;;;2.70;99.90;;;;;;5034837;28;20285;-81
2023/12/14 02:18:29;;;;;;;50.47;19.40;;;2.70;99.90;;;;;;5034394;28;20273;-80
2023/12/14 02:21:18;;;;;;;53.37;19.07;;;2.70;99.90;;;;;;5034328;28;20283;-80
2023/12/14 02:24:05;;;;;;;54.10;18.87;;;2.70;99.90;;;;;;5035731;28;20569;-81
2023/12/14 02:26:53;;;;;;;49.53;18.40;;;2.70;99.90;;;;;;5035008;28;20219;-81
2023/12/14 02:29:50;;;;;;;54.20;19.43;;;2.70;99.90;;;;;;5034830;28;20222;-81
2023/12/14 02:32:41;;;;;;;53.33;19.40;;;2.70;99.90;;;;;;5033380;28;20202;-79
2023/12/14 02:35:28;;;;;;;52.37;19.40;;;2.80;99.90;;;;;;5034204;28;20234;-80
2023/12/14 02:38:16;;;;;;;53.13;18.30;;;2.70;99.90;;;;;;5034951;28;20286;-80
2023/12/14 02:41:03;;;;;;;49.50;20.20;;;2.70;99.90;;;;;;5034450;28;20218;-80
2023/12/14 02:43:51;;;;;;;51.17;19.67;;;2.70;99.90;;;;;;5034178;28;20567;-79
2023/12/14 02:46:38;;;;;;;53.23;19.33;;;2.70;99.90;;;;;;5033884;28;20275;-80
2023/12/14 02:49:25;;;;;;;49.03;19.20;;;2.70;99.90;;;;;;5034496;28;20189;-80
2023/12/14 02:52:13;;;;;;;48.70;18.00;;;2.70;99.90;;;;;;5033946;28;20580;-79
2023/12/14 02:55:00;;;;;;;52.93;18.20;;;2.70;99.90;;;;;;5034414;28;20462;-80
2023/12/14 02:57:48;;;;;;;48.23;18.73;;;2.80;99.90;;;;;;5034102;28;20210;-81
2023/12/14 03:00:36;;;;;;;48.23;18.33;;;2.80;99.90;;;;;;5033737;28;20197;-80
2023/12/14 03:03:24;;;;;;;47.40;18.63;;;2.80;99.90;;;;;;5032721;28;20225;-80
2023/12/14 03:06:11;;;;;;;47.57;18.17;;;2.80;99.90;;;;;;5033568;28;20566;-80
2023/12/14 03:09:00;;;;;;;54.37;18.83;;;2.90;99.90;;;;;;5034156;28;20206;-80
2023/12/14 03:11:48;;;;;;;53.03;18.13;;;2.90;99.90;;;;;;5033355;28;20252;-80
2023/12/14 03:14:36;;;;;;;45.47;17.90;;;2.90;99.90;;;;;;5033437;28;20840;-80
2023/12/14 03:17:23;;;;;;;51.53;18.83;;;2.90;99.90;;;;;;5034810;28;20876;-81
2023/12/14 03:20:14;;;;;;;50.87;18.73;;;2.90;99.90;;;;;;5033918;28;20227;-81
2023/12/14 03:23:01;;;;;;;51.27;18.80;;;2.90;99.90;;;;;;5035261;28;20242;-80
2023/12/14 03:25:49;;;;;;;51.30;19.70;;;2.90;99.90;;;;;;5033503;28;20673;-80
2023/12/14 03:28:36;;;;;;;55.30;20.57;;;2.90;99.90;;;;;;5031801;28;20203;-81
2023/12/14 03:31:24;;;;;;;51.77;19.43;;;2.90;99.90;;;;;;5031682;28;20195;-80
2023/12/14 03:34:12;;;;;;;51.53;19.50;;;2.90;99.90;;;;;;5032739;28;20199;-80
2023/12/14 03:36:59;;;;;;;48.23;19.10;;;2.90;99.90;;;;;;5034434;28;20210;-80
2023/12/14 03:39:47;;;;;;;56.43;19.20;;;3.00;99.90;;;;;;5031660;28;20705;-81
2023/12/14 03:42:35;;;;;;;50.50;18.63;;;3.00;99.90;;;;;;5032906;28;20243;-81
2023/12/14 03:45:22;;;;;;;52.23;19.63;;;2.90;99.90;;;;;;5031015;28;20202;-81
2023/12/14 03:48:10;;;;;;;52.00;19.40;;;2.90;99.90;;;;;;5032589;28;20203;-81
2023/12/14 03:51:01;;;;;;;54.53;19.13;;;2.80;99.90;;;;;;5032685;28;20203;-81
2023/12/14 03:53:49;;;;;;;53.23;18.60;;;2.90;99.90;;;;;;5033452;28;20563;-81
2023/12/14 03:56:37;;;;;;;50.27;18.43;;;2.90;99.90;;;;;;5031854;28;20215;-81
2023/12/14 03:59:24;;;;;;;55.57;18.77;;;2.90;99.90;;;;;;5031618;28;20226;-80
2023/12/14 04:02:12;;;;;;;55.63;19.57;;;2.90;99.90;;;;;;5032516;28;20193;-81
2023/12/14 04:04:59;;;;;;;61.53;19.67;;;2.90;99.90;;;;;;5030654;28;20224;-81
2023/12/14 04:07:48;;;;;;;56.27;18.60;;;2.80;99.90;;;;;;5033034;28;20201;-80
2023/12/14 04:10:35;;;;;;;60.67;18.50;;;2.80;99.90;;;;;;5031835;28;20337;-80
2023/12/14 04:13:23;;;;;;;49.53;18.03;;;2.70;99.90;;;;;;5032089;28;20200;-80
2023/12/14 04:16:10;;;;;;;54.20;18.03;;;2.80;99.90;;;;;;5032688;28;20249;-81
2023/12/14 04:18:58;;;;;;;54.37;18.73;;;2.80;99.90;;;;;;5032913;28;20247;-81
2023/12/14 04:21:45;;;;;;;58.20;19.37;;;2.60;99.90;;;;;;5032047;28;20199;-80
2023/12/14 04:24:33;;;;;;;58.13;17.80;;;2.70;99.90;;;;;;5032965;28;20195;-81
2023/12/14 04:27:24;;;;;;;54.70;18.43;;;2.70;99.90;;;;;;5032377;28;20337;-81
2023/12/14 04:30:11;;;;;;;53.63;18.47;;;2.70;99.90;;;;;;5032291;28;20288;-81
2023/12/14 04:32:59;;;;;;;56.83;19.47;;;2.70;99.90;;;;;;5044350;28;20707;-79
2023/12/14 04:35:47;;;;;;;55.23;18.00;;;2.90;99.90;;;;;;5036238;28;20448;-81
2023/12/14 04:38:34;;;;;;;49.27;17.60;;;2.80;99.90;;;;;;5035937;28;20769;-81
2023/12/14 04:41:23;;;;;;;55.47;17.67;;;2.80;99.90;;;;;;5036290;28;20230;-81
2023/12/14 04:44:11;;;;;;;46.67;16.43;;;2.80;99.90;;;;;;5031244;28;20290;-80
2023/12/14 04:46:58;;;;;;;50.33;17.63;;;2.80;99.90;;;;;;5030965;28;20187;-81
2023/12/14 04:49:46;;;;;;;48.03;17.57;;;2.70;99.90;;;;;;5030527;28;20209;-80
2023/12/14 04:52:34;;;;;;;49.13;17.17;;;2.70;99.90;;;;;;5030545;28;20246;-81
2023/12/14 04:55:22;;;;;;;48.50;17.27;;;2.80;99.90;;;;;;5031182;28;20652;-80
2023/12/14 04:58:09;;;;;;;48.63;17.90;;;2.80;99.90;;;;;;5030436;28;20230;-80
2023/12/14 05:00:57;;;;;;;50.33;17.80;;;2.80;99.90;;;;;;5031694;28;20223;-80
2023/12/14 05:03:44;;;;;;;47.87;17.27;;;2.90;99.90;;;;;;5032082;28;20230;-80
2023/12/14 05:06:33;;;;;;;49.17;16.97;;;2.90;99.90;;;;;;5030411;28;20300;-81
2023/12/14 05:09:21;;;;;;;48.23;16.20;;;2.80;99.90;;;;;;5031287;28;20191;-80
2023/12/14 05:12:08;;;;;;;46.37;16.50;;;2.70;99.90;;;;;;5031371;28;20660;-80
2023/12/14 05:14:55;;;;;;;51.30;16.67;;;2.70;99.90;;;;;;5032796;28;20200;-80
2023/12/14 05:17:45;;;;;;;47.67;16.37;;;2.70;99.90;;;;;;5034154;28;20208;-81
2023/12/14 05:20:33;;;;;;;50.20;16.80;;;2.70;99.90;;;;;;5035638;28;20252;-82
2023/12/14 05:23:21;;;;;;;48.37;16.87;;;2.70;99.90;;;;;;5035957;28;20278;-81
2023/12/14 05:26:08;;;;;;;49.30;17.47;;;2.80;99.90;;;;;;5033619;28;20224;-80
2023/12/14 05:28:56;;;;;;;52.50;16.80;;;2.70;99.90;;;;;;5035589;28;20191;-81
2023/12/14 05:31:43;;;;;;;49.43;17.17;;;2.70;99.90;;;;;;5035324;28;20207;-81
2023/12/14 05:34:31;;;;;;;47.77;17.40;;;2.70;99.90;;;;;;5035243;28;20689;-80
2023/12/14 05:37:18;;;;;;;52.00;17.90;;;2.80;99.90;;;;;;5034811;28;20207;-81
2023/12/14 05:40:06;;;;;;;49.53;16.47;;;2.80;99.90;;;;;;5034646;28;20310;-81
2023/12/14 05:42:54;;;;;;;52.90;17.63;;;2.90;99.90;;;;;;5035344;28;20198;-81
2023/12/14 05:45:42;;;;;;;50.00;16.90;;;2.90;99.90;;;;;;5034268;28;20199;-81
2023/12/14 05:48:29;;;;;;;46.03;16.63;;;2.90;99.90;;;;;;5034695;28;20201;-81
2023/12/14 05:51:39;;;;;;;49.97;16.00;;;2.90;99.90;;;;;;5033435;28;20245;-80
2023/12/14 05:54:26;;;;;;;48.17;16.43;;;2.90;99.90;;;;;;5035175;28;20200;-81
2023/12/14 05:57:13;;;;;;;49.20;17.20;;;2.80;99.90;;;;;;5034685;28;20588;-81
2023/12/14 06:00:01;;;;;;;49.30;16.73;;;2.80;99.90;;;;;;5034962;28;20245;-80
2023/12/14 06:02:48;;;;;;;55.27;18.40;;;2.90;99.90;;;;;;5034354;28;20631;-81
2023/12/14 06:05:36;;;;;;;51.43;18.07;;;2.80;99.90;;;;;;5035021;28;20698;-82
2023/12/14 06:08:23;;;;;;;50.70;16.80;;;2.80;99.90;;;;;;5036601;28;20719;-82
2023/12/14 06:11:11;;;;;;;54.23;18.17;;;2.90;99.90;;;;;;5034682;28;20230;-82
2023/12/14 06:13:59;;;;;;;47.60;16.70;;;2.90;99.90;;;;;;5033692;28;20636;-82
2023/12/14 06:16:47;;;;;;;56.60;17.67;;;2.90;99.90;;;;;;5034314;28;20188;-82
2023/12/14 06:19:35;;;;;;;54.03;17.97;;;3.00;99.90;;;;;;5033459;28;20598;-83
2023/12/14 06:22:22;;;;;;;52.03;16.87;;;3.00;99.90;;;;;;5034417;28;20687;-82
2023/12/14 06:25:09;;;;;;;52.73;17.83;;;3.00;99.90;;;;;;5034095;28;20274;-82
2023/12/14 06:27:56;;;;;;;54.73;18.00;;;3.00;99.90;;;;;;5034637;28;20291;-82
2023/12/14 06:30:44;;;;;;;56.37;17.10;;;2.90;99.90;;;;;;5033333;28;20685;-82
2023/12/14 06:33:31;;;;;;;54.23;17.30;;;2.80;99.90;;;;;;5033911;28;20208;-81
2023/12/14 06:36:19;;;;;;;47.37;17.23;;;2.90;99.90;;;;;;5033867;28;20200;-81
2023/12/14 06:39:07;;;;;;;48.93;16.90;;;2.80;99.90;;;;;;5034199;28;20210;-81
2023/12/14 06:41:54;;;;;;;50.93;17.97;;;2.90;99.90;;;;;;5034112;28;20341;-82
2023/12/14 06:44:44;;;;;;;53.20;18.53;;;2.90;99.90;;;;;;5033466;28;20190;-82
2023/12/14 06:47:31;;;;;;;50.27;16.80;;;2.90;99.90;;;;;;5033775;28;20208;-82
2023/12/14 06:50:18;;;;;;;52.77;17.27;;;2.90;99.90;;;;;;5033367;28;20610;-83
2023/12/14 06:53:06;;;;;;;55.00;18.07;;;2.90;99.90;;;;;;5031716;28;20296;-83
2023/12/14 06:55:53;;;;;;;55.80;17.37;;;2.90;99.90;;;;;;5033624;28;20218;-84
2023/12/14 06:58:43;;;;;;;49.77;16.77;;;2.90;99.90;;;;;;5034319;28;20689;-84
2023/12/14 07:01:30;;;;;;;46.30;16.63;;;3.00;99.90;;;;;;5033360;28;20672;-84
2023/12/14 07:04:19;;;;;;;49.10;17.57;;;3.00;99.90;;;;;;5032668;28;20260;-84
2023/12/14 07:07:06;;;;;;;45.70;17.33;;;3.00;99.90;;;;;;5032074;28;20242;-84
2023/12/14 07:09:54;;;;;;;50.43;17.37;;;3.00;99.90;;;;;;5034113;28;20249;-82
2023/12/14 07:12:42;;;;;;;50.30;18.23;;;3.00;99.90;;;;;;5034455;28;20743;-84
2023/12/14 07:15:29;;;;;;;48.47;17.27;;;2.90;99.90;;;;;;5033592;28;20205;-84
2023/12/14 07:18:16;;;;;;;47.53;18.17;;;2.90;99.90;;;;;;5031646;28;20277;-83
2023/12/14 07:21:05;;;;;;;45.83;15.77;;;3.00;99.90;;;;;;5033340;28;20299;-84
2023/12/14 07:23:52;;;;;;;50.40;15.87;;;2.90;99.90;;;;;;5031689;28;20196;-82
2023/12/14 07:26:40;;;;;;;46.70;16.63;;;2.90;99.90;;;;;;5031908;28;20223;-81
2023/12/14 07:29:27;;;;;;;44.30;15.87;;;2.90;99.90;;;;;;5032908;28;20580;-82
2023/12/14 07:32:16;;;;;;;44.80;15.87;;;3.00;99.90;;;;;;5033087;28;20575;-81
2023/12/14 07:35:03;;;;;;;45.73;15.93;;;2.90;99.90;;;;;;5032392;28;20205;-83
2023/12/14 07:37:51;;;;;;;47.90;16.67;;;2.90;99.90;;;;;;5030624;28;20236;-81
2023/12/14 07:40:40;;;;;;;42.20;15.43;;;3.00;99.90;;;;;;5031941;28;20220;-84
2023/12/14 07:43:27;;;;;;;46.53;15.90;;;2.90;99.90;;;;;;5031448;28;20668;-82
2023/12/14 07:46:14;;;;;;;50.33;16.27;;;2.90;99.90;;;;;;5031710;28;20202;-81
2023/12/14 07:49:02;;;;;;;46.63;16.33;;;2.90;99.90;;;;;;5032588;28;20261;-84
2023/12/14 07:51:49;;;;;;;43.60;16.13;;;2.90;99.90;;;;;;5032305;28;20574;-83
2023/12/14 07:54:37;;;;;;;42.90;15.80;;;2.90;99.90;;;;;;5031928;28;20222;-84
2023/12/14 07:57:25;;;;;;;48.47;17.37;;;3.00;99.90;;;;;;5031373;28;20246;-84
2023/12/14 08:00:13;;;;;;;49.00;16.53;;;3.00;99.90;;;;;;5033063;28;20233;-85
2023/12/14 08:03:00;;;;;;;43.37;16.07;;;2.90;99.90;;;;;;5032915;28;20231;-82
2023/12/14 08:05:48;;;;;;;46.77;16.93;;;2.90;99.90;;;;;;5033804;28;20300;-82
2023/12/14 08:08:37;;;;;;;49.23;16.67;;;2.90;99.90;;;;;;5031721;28;20336;-81
2023/12/14 08:11:27;;;;;;;49.17;17.47;;;2.80;99.90;;;;;;5033318;28;20230;-81
2023/12/14 08:14:14;;;;;;;48.17;16.70;;;2.90;99.90;;;;;;5031601;28;20624;-81
2023/12/14 08:17:01;;;;;;;52.10;18.70;;;3.00;99.90;;;;;;5032153;28;20541;-83
2023/12/14 08:19:49;;;;;;;53.40;17.60;;;3.00;99.90;;;;;;5031836;28;20747;-85
2023/12/14 08:22:37;;;;;;;51.03;18.87;;;3.00;99.90;;;;;;5031688;28;20224;-85
2023/12/14 08:25:25;;;;;;;46.27;16.40;;;3.00;99.90;;;;;;5032833;28;20202;-86
2023/12/14 08:28:13;;;;;;;45.77;17.90;;;3.10;99.90;;;;;;5031369;28;20202;-86
2023/12/14 08:31:02;;;;;;;48.20;17.07;;;3.20;99.90;;;;;;5032209;28;20644;-82
2023/12/14 08:33:52;;;;;;;47.87;17.47;;;3.10;99.90;;;;;;5032355;28;20549;-85
2023/12/14 08:36:39;;;;;;;47.57;16.23;;;3.10;99.90;;;;;;5031038;28;20199;-85
2023/12/14 08:39:27;;;;;;;41.20;15.43;;;3.00;99.90;;;;;;5030474;28;20582;-83
2023/12/14 08:42:15;;;;;;;42.20;15.97;;;3.00;99.90;;;;;;5032021;28;20693;-86
2023/12/14 08:45:02;;;;;;;40.80;16.80;;;3.00;99.90;;;;;;5029959;28;20333;-83
2023/12/14 08:47:50;;;;;;;39.80;15.33;;;3.10;99.90;;;;;;5031842;28;20241;-85
2023/12/14 08:50:37;;;;;;;41.63;15.13;;;3.20;99.90;;;;;;5034461;28;20596;-84
2023/12/14 08:53:24;;;;;;;44.53;16.23;;;3.10;99.90;;;;;;5035311;28;20193;-88
2023/12/14 08:56:12;;;;;;;43.10;16.57;;;3.20;99.90;;;;;;5034258;28;20219;-86
2023/12/14 08:59:00;;;;;;;49.40;17.47;;;3.20;99.90;;;;;;5035840;28;20258;-85
2023/12/14 09:01:47;;;;;;;48.47;17.77;;;3.20;99.90;;;;;;5035881;28;20308;-84
2023/12/14 09:04:35;;;;;;;54.47;19.23;;;3.20;99.90;;;;;;5036251;28;20565;-85
2023/12/14 09:07:23;;;;;;;50.53;18.93;;;3.20;99.90;;;;;;5035827;28;20192;-86
2023/12/14 09:10:11;;;;;;;51.90;19.10;;;3.20;99.90;;;;;;5036798;28;20202;-86
2023/12/14 09:13:00;;;;;;;43.93;17.17;;;3.20;99.90;;;;;;5035576;28;20627;-86
2023/12/14 09:15:47;;;;;;;50.93;17.70;;;3.10;99.90;;;;;;5035902;28;20202;-86
2023/12/14 09:18:35;;;;;;;46.23;17.97;;;3.20;99.90;;;;;;5034544;28;20271;-84
2023/12/14 09:21:22;;;;;;;43.23;17.17;;;3.20;99.90;;;;;;5034354;28;20219;-84
2023/12/14 09:24:24;;;;;;;41.57;17.03;;;3.10;99.90;;;;;;5034489;28;20188;-84
2023/12/14 09:27:11;;;;;;;40.77;17.17;;;3.00;99.90;;;;;;5034883;28;20563;-88
2023/12/14 09:29:59;;;;;;;42.30;16.77;;;3.00;99.90;;;;;;5033675;28;20704;-84
2023/12/14 09:32:46;;;;;;;41.33;16.53;;;3.10;99.90;;;;;;5034668;28;20191;-85
2023/12/14 09:35:36;;;;;;;39.20;16.00;;;3.00;99.90;;;;;;5034343;28;20199;-86
2023/12/14 09:38:23;;;;;;;40.00;16.07;;;3.10;99.90;;;;;;5034680;28;20193;-86
2023/12/14 09:41:11;;;;;;;32.40;14.10;;;3.00;99.90;;;;;;5034907;28;20226;-85
2023/12/14 09:43:59;;;;;;;40.03;16.07;;;3.10;99.90;;;;;;5034634;28;20640;-87
2023/12/14 09:46:50;;;;;;;41.07;16.33;;;3.00;99.90;;;;;;5034049;28;20202;-85
2023/12/14 09:49:40;;;;;;;39.97;16.47;;;3.10;99.90;;;;;;5035858;28;20195;-85
2023/12/14 09:52:28;;;;;;;45.23;18.40;;;3.10;99.90;;;;;;5036079;28;20194;-84
2023/12/14 09:55:16;;;;;;;47.87;17.90;;;3.20;99.90;;;;;;5033695;28;20191;-83
2023/12/14 09:58:03;;;;;;;45.50;18.37;;;3.20;99.90;;;;;;5033887;28;20286;-85
2023/12/14 10:00:51;;;;;;;44.53;17.13;;;3.20;99.90;;;;;;5031880;28;20233;-86
2023/12/14 10:03:38;;;;;;;44.77;16.77;;;3.20;99.90;;;;;;5033606;28;20235;-87
2023/12/14 10:06:26;;;;;;;42.57;17.03;;;3.20;99.90;;;;;;5034868;28;20564;-87
2023/12/14 10:09:15;;;;;;;38.80;15.50;;;3.20;99.90;;;;;;5033673;28;20211;-87
2023/12/14 10:12:05;;;;;;;36.53;15.00;;;3.30;99.90;;;;;;5034614;28;20669;-87
2023/12/14 10:15:01;;;;;;;39.80;15.57;;;3.30;99.90;;;;;;5035856;28;20688;-86
2023/12/14 10:17:54;;;;;;;36.83;15.40;;;3.30;99.90;;;;;;5032774;28;20184;-82
2023/12/14 10:20:41;;;;;;;39.40;15.13;;;3.30;99.90;;;;;;5032089;28;20426;-86
2023/12/14 10:23:29;;;;;;;41.47;15.90;;;3.40;99.90;;;;;;5033452;28;20252;-84
2023/12/14 10:26:16;;;;;;;35.83;15.17;;;3.50;99.90;;;;;;5034108;28;20261;-85
2023/12/14 10:29:06;;;;;;;35.10;15.37;;;3.50;99.90;;;;;;5034457;28;20198;-86
2023/12/14 10:31:54;;;;;;;34.87;14.37;;;3.50;99.90;;;;;;5033924;28;20341;-85
2023/12/14 10:34:42;;;;;;;35.73;14.10;;;3.50;99.90;;;;;;5034869;28;20202;-85
2023/12/14 10:37:30;;;;;;;31.33;13.70;;;3.60;99.90;;;;;;5034204;28;20286;-86
2023/12/14 10:40:18;;;;;;;29.73;13.37;;;3.60;99.90;;;;;;5034593;28;20215;-85
2023/12/14 10:43:06;;;;;;;26.67;12.30;;;3.50;99.90;;;;;;5032932;28;20227;-86
2023/12/14 10:45:55;;;;;;;23.67;11.37;;;3.40;99.90;;;;;;5033250;28;20198;-86
2023/12/14 10:48:46;;;;;;;24.00;10.80;;;3.40;99.90;;;;;;5033913;28;20210;-85
2023/12/14 10:51:37;;;;;;;22.53;9.73;;;3.50;99.90;;;;;;5033231;28;20253;-84
2023/12/14 10:54:27;;;;;;;22.30;10.37;;;3.50;99.90;;;;;;5031701;28;20227;-85
2023/12/14 10:57:14;;;;;;;21.93;9.80;;;3.60;99.90;;;;;;5033147;28;20292;-84
2023/12/14 11:00:08;;;;;;;20.87;9.90;;;3.60;99.90;;;;;;5032100;28;20200;-87
2023/12/14 11:02:57;;;;;;;23.67;11.00;;;3.70;99.90;;;;;;5032832;28;20289;-88
2023/12/14 11:05:44;;;;;;;21.80;10.30;;;3.60;99.90;;;;;;5033931;28;20228;-88
2023/12/14 11:08:34;;;;;;;21.57;10.23;;;3.70;99.90;;;;;;5033080;28;20245;-85
2023/12/14 11:11:22;;;;;;;25.13;12.03;;;3.80;99.90;;;;;;5031685;28;20696;-86
2023/12/14 11:14:13;;;;;;;28.73;11.50;;;3.70;99.90;;;;;;5033356;28;20203;-84
2023/12/14 11:17:10;;;;;;;25.70;11.70;;;3.60;99.90;;;;;;5032845;28;20206;-81
2023/12/14 11:20:17;;;;;;;26.37;12.03;;;3.60;99.90;;;;;;5034307;28;20244;-84
2023/12/14 11:23:08;;;;;;;28.30;12.40;;;3.60;99.90;;;;;;5032478;28;20195;-85
2023/12/14 11:26:04;;;;;;;28.07;12.60;;;3.50;99.90;;;;;;5031882;28;20215;-85
2023/12/14 11:28:52;;;;;;;30.87;12.83;;;3.60;99.90;;;;;;5032594;28;20202;-87
2023/12/14 11:31:40;;;;;;;30.53;12.40;;;3.50;99.90;;;;;;5032747;28;20609;-86
2023/12/14 11:34:28;;;;;;;27.43;12.87;;;3.50;99.90;;;;;;5033160;28;20192;-86
2023/12/14 11:37:15;;;;;;;26.77;11.23;;;3.40;99.90;;;;;;5032552;28;20576;-84
2023/12/14 11:40:05;;;;;;;26.43;11.23;;;3.40;99.90;;;;;;5032986;28;20646;-86
2023/12/14 11:42:59;;;;;;;26.80;11.57;;;3.30;99.90;;;;;;5032425;28;20202;-85
2023/12/14 11:45:46;;;;;;;26.27;12.17;;;3.40;99.90;;;;;;5031204;28;20687;-85
2023/12/14 11:48:34;;;;;;;26.00;10.60;;;3.50;99.90;;;;;;5032247;28;20210;-85
2023/12/14 11:51:21;;;;;;;26.00;10.77;;;3.60;99.90;;;;;;5032699;28;20241;-85
2023/12/14 11:54:09;;;;;;;26.10;11.70;;;3.60;99.90;;;;;;5033709;28;20676;-83
2023/12/14 11:56:56;;;;;;;27.20;11.97;;;3.60;99.90;;;;;;5032087;28;20219;-85
2023/12/14 11:59:45;;;;;;;25.53;11.23;;;3.60;99.90;;;;;;5031964;28;20254;-85
2023/12/14 12:02:34;;;;;;;23.27;10.73;;;3.60;99.90;;;;;;5032078;28;20246;-87
2023/12/14 12:05:39;;;;;;;25.67;11.10;;;3.60;99.90;;;;;;5033360;28;20192;-86
2023/12/14 12:08:27;;;;;;;25.53;11.43;;;3.50;99.90;;;;;;5032638;28;20249;-87
2023/12/14 12:11:18;;;;;;;32.60;13.83;;;3.40;99.90;;;;;;5032198;28;20233;-87
2023/12/14 12:14:06;;;;;;;37.20;14.13;;;3.40;99.90;;;;;;5033729;28;20846;-86
2023/12/14 12:16:55;;;;;;;29.93;12.67;;;3.30;99.90;;;;;;5033177;28;20199;-87
2023/12/14 12:19:42;;;;;;;32.93;13.23;;;3.30;99.90;;;;;;5032480;28;20196;-86
2023/12/14 12:22:30;;;;;;;34.70;14.20;;;3.30;99.90;;;;;;5031709;28;20211;-84
2023/12/14 12:25:17;;;;;;;35.50;14.53;;;3.30;99.90;;;;;;5031071;28;20263;-80
2023/12/14 12:28:05;;;;;;;35.10;13.70;;;3.40;99.90;;;;;;5031808;28;20199;-81
2023/12/14 12:30:52;;;;;;;31.27;14.27;;;3.40;99.90;;;;;;5033423;28;20245;-81
2023/12/14 12:33:40;;;;;;;35.60;15.03;;;3.40;99.90;;;;;;5032682;28;20195;-81
2023/12/14 12:36:27;;;;;;;45.53;19.63;;;3.50;99.90;;;;;;5031074;28;20191;-81
2023/12/14 12:39:15;;;;;;;52.83;21.60;;;3.40;99.90;;;;;;5031012;28;20199;-80
2023/12/14 12:42:03;;;;;;;51.37;20.03;;;3.40;99.90;;;;;;5032552;28;20252;-80
2023/12/14 12:44:51;;;;;;;46.43;18.40;;;3.40;99.90;;;;;;5032617;28;20226;-80
2023/12/14 12:47:38;;;;;;;47.00;19.00;;;3.40;99.90;;;;;;5032591;28;20282;-80
2023/12/14 12:50:26;;;;;;;42.83;17.07;;;3.40;99.90;;;;;;5031867;28;20202;-81
2023/12/14 12:53:13;;;;;;;41.80;15.83;;;3.30;99.90;;;;;;5031290;28;20270;-80
2023/12/14 12:56:01;;;;;;;62.77;19.30;;;3.30;99.90;;;;;;5031935;28;20213;-81
2023/12/14 12:58:49;;;;;;;43.07;17.03;;;3.30;99.90;;;;;;5031999;28;20285;-80
2023/12/14 13:01:37;;;;;;;37.07;14.30;;;3.30;99.90;;;;;;5031154;28;20718;-82
2023/12/14 13:04:26;;;;;;;37.03;14.70;;;3.20;99.90;;;;;;5031779;28;20210;-81
2023/12/14 13:07:13;;;;;;;42.57;15.73;;;3.20;99.90;;;;;;5031908;28;20703;-82
2023/12/14 13:10:01;;;;;;;44.67;15.77;;;3.10;99.90;;;;;;5032053;28;20227;-82
2023/12/14 13:12:56;;;;;;;40.33;15.27;;;3.00;99.90;;;;;;5030986;28;20192;-84
2023/12/14 13:15:44;;;;;;;43.30;16.07;;;3.00;99.90;;;;;;5031257;28;20229;-84
2023/12/14 13:18:31;;;;;;;42.27;16.20;;;3.00;99.90;;;;;;5029854;28;20194;-85
2023/12/14 13:21:22;;;;;;;38.47;15.37;;;3.00;99.90;;;;;;5031581;28;20278;-86
2023/12/14 13:24:09;;;;;;;38.77;15.23;;;2.90;99.90;;;;;;5031796;28;20286;-83
2023/12/14 13:26:56;;;;;;;39.40;14.77;;;3.00;99.90;;;;;;5031053;28;20625;-85
2023/12/14 13:29:45;;;;;;;35.33;14.83;;;3.00;99.90;;;;;;5031669;28;20281;-84
2023/12/14 13:32:32;;;;;;;33.07;13.27;;;2.90;99.90;;;;;;5031210;28;20232;-84
2023/12/14 13:35:22;;;;;;;34.20;12.63;;;2.90;99.90;;;;;;5033830;28;20194;-82
2023/12/14 13:38:10;;;;;;;28.97;11.83;;;2.90;99.90;;;;;;5033662;28;20207;-84
2023/12/14 13:40:57;;;;;;;28.27;10.87;;;2.90;99.90;;;;;;5034535;28;20222;-83
2023/12/14 13:43:46;;;;;;;25.73;10.87;;;2.90;99.90;;;;;;5035158;28;20201;-85
2023/12/14 13:46:33;;;;;;;34.20;12.30;;;2.90;99.90;;;;;;5034663;28;20202;-85
2023/12/14 13:49:20;;;;;;;31.47;11.53;;;2.90;99.90;;;;;;5035027;28;20485;-84
2023/12/14 13:52:09;;;;;;;27.20;11.17;;;2.90;99.90;;;;;;5034416;28;20202;-85
2023/12/14 13:54:58;;;;;;;30.57;11.23;;;3.00;99.90;;;;;;5033440;28;20196;-84
2023/12/14 13:57:47;;;;;;;30.93;13.00;;;2.90;99.90;;;;;;5034359;28;20194;-83
2023/12/14 14:00:35;;;;;;;35.80;14.57;;;2.90;99.90;;;;;;5036219;28;20268;-85
2023/12/14 14:03:22;;;;;;;36.80;14.57;;;2.90;99.90;;;;;;5034417;28;20318;-85
2023/12/14 14:06:10;;;;;;;32.53;13.77;;;2.80;99.90;;;;;;5034511;28;20217;-83
2023/12/14 14:08:57;;;;;;;34.37;13.67;;;2.90;99.90;;;;;;5034363;28;20194;-83
2023/12/14 14:11:48;;;;;;;37.13;14.17;;;2.90;99.90;;;;;;5032981;28;20751;-84
2023/12/14 14:14:35;;;;;;;34.37;13.60;;;2.90;99.90;;;;;;5035773;28;20190;-84
2023/12/14 14:17:22;;;;;;;37.87;15.07;;;2.90;99.90;;;;;;5033934;28;20245;-85
2023/12/14 14:20:10;;;;;;;38.80;15.40;;;2.90;99.90;;;;;;5033835;28;20706;-85
2023/12/14 14:22:59;;;;;;;41.53;15.47;;;2.80;99.90;;;;;;5034503;28;20797;-87
2023/12/14 14:25:47;;;;;;;37.47;14.90;;;2.80;99.90;;;;;;5033025;28;20432;-84